Time;durP1;ratioP1;P1;durP2;ratioP2;P2;SDS_P1;SDS_P2;PMS_P1;PMS_P2;Temp;Humidity;BMP_temperature;BMP_pressure;BME280_temperature;BME280_humidity;BME280_pressure;Samples;Min_cycle;Max_cycle;Signal;HPM_P1;HPM_P2
2023/12/29 00:00:11;;;;;;;27.70;8.23;;;10.10;93.10;;;;;;5116387;27;20088;-78
2023/12/29 00:02:37;;;;;;;31.17;8.63;;;10.10;93.00;;;;;;5133225;27;20123;-78
2023/12/29 00:05:03;;;;;;;28.77;6.22;;;10.20;93.00;;;;;;5133184;27;20125;-78
2023/12/29 00:07:28;;;;;;;25.05;5.75;;;10.20;92.90;;;;;;5133001;27;20065;-78
2023/12/29 00:09:54;;;;;;;21.80;5.05;;;10.10;93.10;;;;;;5133290;27;20043;-79
2023/12/29 00:12:20;;;;;;;22.23;6.13;;;10.20;93.00;;;;;;5133330;27;20126;-78
2023/12/29 00:14:45;;;;;;;27.25;6.07;;;10.10;93.00;;;;;;5133048;27;20376;-78
2023/12/29 00:17:11;;;;;;;31.55;5.57;;;10.20;93.10;;;;;;5115864;27;20126;-79
2023/12/29 00:19:37;;;;;;;30.92;7.50;;;10.10;93.00;;;;;;5133133;27;20142;-78
2023/12/29 00:22:03;;;;;;;27.17;6.38;;;10.20;92.90;;;;;;5132936;27;20380;-78
2023/12/29 00:24:33;;;;;;;22.15;6.03;;;10.10;93.10;;;;;;5132857;27;20078;-78
2023/12/29 00:26:58;;;;;;;27.20;5.43;;;10.10;93.10;;;;;;5115659;27;20134;-78
2023/12/29 00:29:24;;;;;;;28.58;5.75;;;10.00;93.20;;;;;;5115664;27;20126;-77
2023/12/29 00:31:50;;;;;;;28.33;7.93;;;10.10;93.00;;;;;;5132685;27;20074;-79
2023/12/29 00:34:16;;;;;;;23.65;7.05;;;10.10;92.80;;;;;;5132278;27;20101;-78
2023/12/29 00:36:41;;;;;;;25.83;6.22;;;10.10;92.70;;;;;;5132959;27;20083;-77
2023/12/29 00:39:07;;;;;;;27.38;6.53;;;10.10;92.70;;;;;;5132787;27;20506;-79
2023/12/29 00:41:33;;;;;;;27.05;6.03;;;10.20;92.50;;;;;;5115584;28;20039;-78
2023/12/29 00:44:01;;;;;;;28.15;6.55;;;10.20;92.60;;;;;;5115555;28;20046;-78
2023/12/29 00:46:27;;;;;;;24.85;5.80;;;10.20;92.70;;;;;;5132874;28;20379;-79
2023/12/29 00:48:53;;;;;;;29.40;6.00;;;10.20;92.50;;;;;;5115472;28;20050;-78
2023/12/29 00:51:18;;;;;;;22.70;5.53;;;10.20;92.70;;;;;;5132478;28;20050;-77
2023/12/29 00:53:44;;;;;;;32.10;6.38;;;10.10;92.80;;;;;;5115580;28;20046;-77
2023/12/29 00:56:11;;;;;;;21.55;6.28;;;10.10;92.80;;;;;;5132527;28;20039;-77
2023/12/29 00:58:37;;;;;;;35.03;7.00;;;10.10;93.00;;;;;;5132454;28;20054;-79
2023/12/29 01:01:03;;;;;;;25.58;5.32;;;10.10;92.80;;;;;;5132402;28;20130;-79
2023/12/29 01:03:28;;;;;;;19.33;6.15;;;10.10;93.00;;;;;;5115293;28;20049;-76
2023/12/29 01:05:54;;;;;;;33.92;6.03;;;10.10;92.80;;;;;;5132417;28;20039;-78
2023/12/29 01:08:20;;;;;;;23.35;5.57;;;10.10;92.60;;;;;;5115325;28;20043;-78
2023/12/29 01:10:45;;;;;;;25.83;6.75;;;10.10;92.40;;;;;;5132318;28;20039;-79
2023/12/29 01:13:11;;;;;;;20.50;4.70;;;10.10;92.30;;;;;;5115430;28;20071;-78
2023/12/29 01:15:37;;;;;;;26.65;6.05;;;10.10;92.10;;;;;;5132351;28;20039;-79
2023/12/29 01:18:03;;;;;;;22.65;5.05;;;10.10;92.10;;;;;;5132272;28;20047;-79
2023/12/29 01:20:29;;;;;;;31.02;6.80;;;10.10;92.20;;;;;;5132379;28;20130;-79
2023/12/29 01:22:54;;;;;;;34.42;7.45;;;10.10;92.30;;;;;;5098231;28;20102;-78
2023/12/29 01:25:20;;;;;;;29.55;8.77;;;10.20;92.30;;;;;;5132231;28;20039;-78
2023/12/29 01:27:46;;;;;;;23.15;5.60;;;10.20;92.40;;;;;;5114905;28;20054;-78
2023/12/29 01:30:12;;;;;;;27.60;8.05;;;10.20;92.20;;;;;;5132102;28;20078;-77
2023/12/29 01:32:37;;;;;;;20.77;5.32;;;10.30;91.90;;;;;;5132385;28;20066;-78
2023/12/29 01:35:03;;;;;;;27.05;6.38;;;10.30;91.60;;;;;;5115108;28;20123;-77
2023/12/29 01:37:29;;;;;;;24.15;6.80;;;10.30;91.40;;;;;;5132192;28;20043;-78
2023/12/29 01:39:55;;;;;;;18.85;4.40;;;10.20;91.10;;;;;;5132066;28;20039;-77
2023/12/29 01:42:20;;;;;;;14.57;3.85;;;10.20;90.40;;;;;;5098292;28;20031;-78
2023/12/29 01:44:52;;;;;;;20.98;3.47;;;10.10;89.30;;;;;;5115306;28;20056;-77
2023/12/29 01:47:18;;;;;;;15.40;4.15;;;10.10;89.20;;;;;;5117557;27;20039;-77
2023/12/29 01:49:45;;;;;;;13.13;3.30;;;10.10;89.00;;;;;;5118551;27;20038;-79
2023/12/29 01:52:11;;;;;;;14.60;2.88;;;10.10;88.60;;;;;;5118580;27;20490;-79
2023/12/29 01:54:40;;;;;;;10.20;2.42;;;10.10;88.50;;;;;;5118465;27;20038;-78
2023/12/29 01:57:08;;;;;;;14.32;4.30;;;10.10;88.30;;;;;;5118963;27;20058;-79
2023/12/29 01:59:35;;;;;;;14.85;3.20;;;10.10;87.70;;;;;;5118660;27;20035;-77
2023/12/29 02:02:04;;;;;;;16.13;4.10;;;10.10;87.30;;;;;;5118749;27;20118;-79
2023/12/29 02:04:31;;;;;;;23.73;4.82;;;10.00;87.40;;;;;;5135424;27;20064;-79
2023/12/29 02:06:56;;;;;;;16.48;3.50;;;10.10;87.10;;;;;;5135370;27;20162;-77
2023/12/29 02:09:22;;;;;;;17.90;4.40;;;10.10;86.70;;;;;;5135521;27;20040;-79
2023/12/29 02:11:48;;;;;;;19.38;5.07;;;10.10;86.40;;;;;;5118177;27;20042;-79
2023/12/29 02:14:16;;;;;;;15.60;3.80;;;10.10;86.10;;;;;;5135329;27;20035;-77
2023/12/29 02:17:05;;;;;;;16.70;3.70;;;10.10;86.00;;;;;;5135598;27;20352;-77
2023/12/29 02:19:38;;;;;;;20.58;4.20;;;10.10;86.20;;;;;;5118133;27;20035;-78
2023/12/29 02:22:05;;;;;;;22.02;5.95;;;10.00;86.70;;;;;;5118034;27;20039;-77
2023/12/29 02:24:32;;;;;;;16.17;4.40;;;10.00;87.00;;;;;;5101167;27;20034;-79
2023/12/29 02:27:25;;;;;;;21.25;4.47;;;10.00;87.40;;;;;;5101087;27;20066;-78
2023/12/29 02:30:40;;;;;;;22.05;5.68;;;10.00;87.70;;;;;;5134976;27;20527;-78
2023/12/29 02:33:09;;;;;;;20.58;5.00;;;10.00;87.90;;;;;;5099517;27;20054;-76
2023/12/29 02:35:39;;;;;;;19.52;4.88;;;10.00;87.90;;;;;;5134957;27;20122;-77
2023/12/29 02:38:05;;;;;;;29.38;6.05;;;10.10;88.10;;;;;;5135001;27;20091;-78
2023/12/29 02:40:32;;;;;;;24.65;5.18;;;10.00;88.40;;;;;;5134712;27;20057;-78
2023/12/29 02:42:57;;;;;;;42.38;7.45;;;10.00;88.80;;;;;;5134681;27;20039;-76
2023/12/29 02:45:23;;;;;;;37.03;8.88;;;10.00;89.20;;;;;;5117594;27;20180;-80
2023/12/29 02:47:49;;;;;;;33.58;8.10;;;10.00;89.60;;;;;;5117641;27;20074;-79
2023/12/29 02:50:15;;;;;;;33.10;6.45;;;10.00;90.10;;;;;;5134526;27;20071;-79
2023/12/29 02:52:41;;;;;;;23.30;5.35;;;10.00;90.50;;;;;;5134620;27;20126;-78
2023/12/29 02:55:07;;;;;;;36.83;7.13;;;10.10;90.30;;;;;;5134533;27;20184;-79
2023/12/29 02:57:33;;;;;;;34.13;8.77;;;10.00;90.30;;;;;;5100288;27;20039;-79
2023/12/29 02:59:59;;;;;;;34.08;7.78;;;10.00;90.50;;;;;;5134339;27;20566;-78
2023/12/29 03:02:24;;;;;;;36.40;7.03;;;10.00;90.50;;;;;;5134394;27;20368;-79
2023/12/29 03:04:50;;;;;;;38.28;8.50;;;10.00;90.70;;;;;;5117241;27;20046;-78
2023/12/29 03:07:16;;;;;;;42.28;7.32;;;10.00;90.80;;;;;;5100205;27;20081;-78
2023/12/29 03:09:42;;;;;;;37.58;8.07;;;10.00;91.30;;;;;;5117074;27;20039;-78
2023/12/29 03:12:07;;;;;;;40.33;9.10;;;10.00;91.60;;;;;;5117111;27;20031;-77
2023/12/29 03:14:33;;;;;;;47.08;7.95;;;10.00;92.00;;;;;;5117074;27;20039;-77
2023/12/29 03:16:59;;;;;;;33.83;6.35;;;10.00;91.80;;;;;;5117215;27;20050;-79
2023/12/29 03:19:25;;;;;;;35.05;7.28;;;10.00;91.60;;;;;;5116959;27;20501;-79
2023/12/29 03:21:52;;;;;;;37.05;8.35;;;10.00;91.40;;;;;;5116786;27;20050;-78
2023/12/29 03:24:18;;;;;;;31.90;6.45;;;9.90;91.10;;;;;;5134256;27;20121;-78
2023/12/29 03:26:43;;;;;;;24.33;6.07;;;9.90;91.20;;;;;;5116511;27;20529;-77
2023/12/29 03:29:11;;;;;;;31.13;6.93;;;9.80;90.70;;;;;;5133836;27;20051;-79
2023/12/29 03:31:36;;;;;;;24.00;7.13;;;9.80;89.40;;;;;;5133952;27;20150;-78
2023/12/29 03:34:02;;;;;;;35.40;7.60;;;9.80;88.70;;;;;;5116961;27;20408;-77
2023/12/29 03:36:28;;;;;;;23.27;3.80;;;9.80;88.20;;;;;;5133675;27;20156;-78
2023/12/29 03:38:53;;;;;;;31.80;6.25;;;9.80;87.70;;;;;;5099874;27;20035;-78
2023/12/29 03:41:19;;;;;;;33.60;5.80;;;9.70;87.60;;;;;;5133460;27;20043;-77
2023/12/29 03:43:45;;;;;;;21.20;6.10;;;9.70;87.20;;;;;;5133539;27;20039;-78
2023/12/29 03:46:18;;;;;;;26.75;5.38;;;9.70;86.80;;;;;;5133484;27;20039;-77
2023/12/29 03:48:43;;;;;;;17.60;4.18;;;9.60;86.80;;;;;;5116273;27;20035;-78
2023/12/29 03:51:09;;;;;;;22.05;4.85;;;9.70;86.70;;;;;;5116295;27;20046;-79
2023/12/29 03:53:35;;;;;;;19.70;4.38;;;9.60;86.50;;;;;;5099493;27;20074;-77
2023/12/29 03:56:05;;;;;;;26.40;4.60;;;9.60;86.60;;;;;;5116514;27;20039;-78
2023/12/29 03:58:31;;;;;;;33.05;7.03;;;9.70;86.20;;;;;;5116625;27;20039;-79
2023/12/29 04:00:56;;;;;;;26.52;5.47;;;9.70;85.90;;;;;;5133189;27;20092;-79
2023/12/29 04:03:22;;;;;;;27.63;5.82;;;9.70;85.10;;;;;;5133233;27;20064;-79
2023/12/29 04:05:47;;;;;;;24.75;5.30;;;9.70;84.90;;;;;;5116355;27;20255;-78
2023/12/29 04:08:13;;;;;;;28.33;5.68;;;9.70;84.80;;;;;;5132877;27;20031;-77
2023/12/29 04:10:39;;;;;;;18.13;5.22;;;9.70;84.80;;;;;;5132719;27;20125;-78
2023/12/29 04:13:04;;;;;;;21.05;4.97;;;9.60;85.20;;;;;;5116216;27;20483;-77
2023/12/29 04:15:30;;;;;;;26.60;5.05;;;9.60;85.10;;;;;;5133273;27;20065;-77
2023/12/29 04:17:56;;;;;;;22.20;5.53;;;9.60;85.60;;;;;;5132966;27;20509;-77
2023/12/29 04:20:22;;;;;;;24.98;5.82;;;9.60;85.90;;;;;;5115769;27;20111;-78
2023/12/29 04:22:48;;;;;;;27.08;5.53;;;9.70;85.30;;;;;;5133179;27;20047;-78
2023/12/29 04:25:13;;;;;;;31.80;5.72;;;9.60;85.60;;;;;;5115756;28;20080;-77
2023/12/29 04:27:40;;;;;;;34.60;7.07;;;9.60;85.70;;;;;;5132574;27;20090;-78
2023/12/29 04:30:08;;;;;;;21.70;4.80;;;9.60;85.30;;;;;;5115724;27;20571;-78
2023/12/29 04:32:33;;;;;;;19.55;4.47;;;9.60;85.20;;;;;;5116000;28;20051;-78
2023/12/29 04:34:59;;;;;;;21.60;5.47;;;9.60;84.90;;;;;;5132761;27;20035;-79
2023/12/29 04:37:25;;;;;;;24.98;5.70;;;9.60;84.40;;;;;;5132728;27;20043;-78
2023/12/29 04:39:50;;;;;;;27.73;7.40;;;9.60;84.40;;;;;;5115519;28;20038;-78
2023/12/29 04:42:17;;;;;;;38.00;6.03;;;9.60;83.90;;;;;;5132770;27;20133;-78
2023/12/29 04:44:43;;;;;;;25.80;5.63;;;9.60;84.00;;;;;;5132849;28;20039;-77
2023/12/29 04:47:09;;;;;;;26.25;4.97;;;9.60;84.40;;;;;;5115583;28;20100;-77
2023/12/29 04:49:35;;;;;;;23.67;5.90;;;9.60;84.10;;;;;;5132556;28;20448;-78
2023/12/29 04:52:01;;;;;;;32.25;6.93;;;9.50;84.50;;;;;;5115423;28;20035;-77
2023/12/29 04:54:27;;;;;;;25.52;4.90;;;9.60;84.70;;;;;;5098534;28;20137;-77
2023/12/29 04:56:53;;;;;;;27.77;5.40;;;9.60;84.80;;;;;;5132834;28;20122;-78
2023/12/29 04:59:18;;;;;;;20.45;5.78;;;9.60;85.00;;;;;;5132514;28;20043;-80
2023/12/29 05:01:44;;;;;;;23.67;5.93;;;9.60;84.70;;;;;;5115583;28;20429;-78
2023/12/29 05:04:10;;;;;;;30.17;5.97;;;9.60;84.60;;;;;;5115348;28;20031;-78
2023/12/29 05:06:36;;;;;;;23.48;5.35;;;9.60;84.70;;;;;;5132416;28;20114;-78
2023/12/29 05:09:02;;;;;;;25.17;5.60;;;9.60;84.70;;;;;;5098247;28;20051;-79
2023/12/29 05:11:28;;;;;;;22.98;5.28;;;9.70;84.50;;;;;;5115630;28;20039;-78
2023/12/29 05:13:53;;;;;;;23.00;4.82;;;9.60;84.80;;;;;;5132591;28;20445;-79
2023/12/29 05:16:19;;;;;;;29.38;6.80;;;9.60;84.90;;;;;;5098355;28;20035;-77
2023/12/29 05:18:45;;;;;;;28.90;6.22;;;9.60;85.00;;;;;;5132218;28;20098;-78
2023/12/29 05:21:18;;;;;;;25.90;6.05;;;9.50;85.30;;;;;;5134704;27;20061;-78
2023/12/29 05:23:45;;;;;;;34.20;6.38;;;9.50;85.30;;;;;;5136631;27;20039;-77
2023/12/29 05:26:11;;;;;;;26.60;5.68;;;9.50;85.40;;;;;;5119207;27;20050;-77
2023/12/29 05:28:37;;;;;;;25.40;5.32;;;9.50;85.40;;;;;;5136014;27;20110;-79
2023/12/29 05:31:05;;;;;;;31.48;5.88;;;9.50;85.60;;;;;;5119013;27;20055;-77
2023/12/29 05:33:32;;;;;;;24.65;6.28;;;9.50;85.80;;;;;;5136432;27;20092;-78
2023/12/29 05:35:58;;;;;;;17.98;3.92;;;9.50;85.80;;;;;;5119132;27;20414;-79
2023/12/29 05:38:24;;;;;;;21.70;6.03;;;9.60;85.90;;;;;;5118907;27;20046;-78
2023/12/29 05:40:50;;;;;;;23.48;5.05;;;9.60;85.90;;;;;;5135947;27;20043;-77
2023/12/29 05:43:17;;;;;;;30.05;5.90;;;9.60;85.80;;;;;;5135914;27;20126;-78
2023/12/29 05:45:43;;;;;;;26.25;5.35;;;9.60;86.00;;;;;;5135986;27;20086;-78
2023/12/29 05:48:08;;;;;;;23.13;4.78;;;9.60;86.20;;;;;;5135852;27;20109;-79
2023/12/29 05:50:34;;;;;;;21.52;5.18;;;9.60;86.60;;;;;;5118823;27;20035;-79
2023/12/29 05:53:00;;;;;;;23.42;5.68;;;9.60;86.40;;;;;;5118699;27;20038;-77
2023/12/29 05:55:26;;;;;;;17.50;4.45;;;9.70;86.60;;;;;;5135977;27;20050;-79
2023/12/29 05:57:51;;;;;;;29.15;7.13;;;9.70;86.90;;;;;;5118594;27;20046;-77
2023/12/29 06:00:17;;;;;;;27.42;5.55;;;9.70;87.10;;;;;;5118775;27;20111;-78
2023/12/29 06:02:43;;;;;;;28.35;6.18;;;9.70;87.30;;;;;;5118486;27;20035;-79
2023/12/29 06:05:12;;;;;;;22.35;5.68;;;9.70;87.60;;;;;;5118602;27;20042;-78
2023/12/29 06:07:38;;;;;;;32.13;6.68;;;9.70;87.80;;;;;;5135600;27;20065;-76
2023/12/29 06:10:05;;;;;;;30.10;6.57;;;9.70;88.00;;;;;;5135661;27;20546;-78
2023/12/29 06:12:31;;;;;;;31.17;6.35;;;9.70;88.20;;;;;;5101627;27;20039;-78
2023/12/29 06:14:56;;;;;;;24.58;7.00;;;9.70;88.40;;;;;;5135365;27;20483;-79
2023/12/29 06:17:22;;;;;;;20.63;5.68;;;9.70;88.40;;;;;;5135293;27;20169;-80
2023/12/29 06:19:48;;;;;;;23.60;5.53;;;9.70;88.20;;;;;;5118001;27;20050;-78
2023/12/29 06:22:14;;;;;;;29.67;6.25;;;9.80;87.80;;;;;;5135389;27;20058;-77
2023/12/29 06:24:40;;;;;;;26.48;6.05;;;9.80;87.70;;;;;;5135609;27;20075;-78
2023/12/29 06:27:09;;;;;;;24.27;6.60;;;9.80;87.70;;;;;;5118285;27;20104;-76
2023/12/29 06:29:35;;;;;;;31.25;6.63;;;9.90;87.30;;;;;;5118538;27;20035;-79
2023/12/29 06:32:01;;;;;;;30.65;6.00;;;9.80;87.40;;;;;;5117825;27;20066;-78
2023/12/29 06:34:27;;;;;;;28.77;6.47;;;9.80;87.50;;;;;;5135472;27;20483;-78
2023/12/29 06:36:52;;;;;;;29.70;6.35;;;9.80;87.30;;;;;;5135733;27;20042;-79
2023/12/29 06:39:18;;;;;;;19.13;5.72;;;9.80;87.30;;;;;;5135733;27;20043;-76
2023/12/29 06:41:44;;;;;;;31.00;6.93;;;9.80;87.40;;;;;;5117952;27;20517;-77
2023/12/29 06:44:10;;;;;;;30.23;6.47;;;9.70;87.40;;;;;;5118017;27;20039;-78
2023/12/29 06:46:39;;;;;;;31.17;5.80;;;9.80;87.20;;;;;;5134717;27;20098;-77
2023/12/29 06:49:08;;;;;;;21.50;5.97;;;9.80;87.40;;;;;;5135168;27;20126;-78
2023/12/29 06:51:35;;;;;;;19.00;5.38;;;9.70;87.40;;;;;;5135025;27;20115;-78
2023/12/29 06:54:01;;;;;;;30.25;6.15;;;9.70;87.50;;;;;;5101245;27;20039;-79
2023/12/29 06:56:27;;;;;;;31.95;7.93;;;9.80;87.20;;;;;;5118182;27;20042;-79
2023/12/29 06:58:53;;;;;;;23.58;6.32;;;9.80;87.10;;;;;;5118006;27;20043;-78
2023/12/29 07:01:18;;;;;;;35.75;6.03;;;9.70;87.30;;;;;;5134750;27;20053;-79
2023/12/29 07:03:44;;;;;;;24.80;6.18;;;9.70;87.30;;;;;;5134945;27;20130;-77
2023/12/29 07:06:10;;;;;;;26.77;5.35;;;9.70;87.30;;;;;;5117575;27;20125;-77
2023/12/29 07:08:36;;;;;;;18.98;4.78;;;9.70;87.40;;;;;;5134513;27;20039;-79
2023/12/29 07:11:02;;;;;;;28.85;5.60;;;9.80;87.30;;;;;;5134233;27;20042;-80
2023/12/29 07:13:28;;;;;;;27.00;5.40;;;9.70;87.30;;;;;;5134404;27;20039;-77
2023/12/29 07:15:54;;;;;;;25.65;5.95;;;9.70;87.60;;;;;;5134525;27;20035;-77
2023/12/29 07:18:20;;;;;;;24.02;7.07;;;9.80;87.60;;;;;;5134626;27;20519;-77
2023/12/29 07:20:46;;;;;;;41.42;6.38;;;9.80;87.10;;;;;;5117353;27;20122;-78
2023/12/29 07:23:12;;;;;;;27.27;6.60;;;9.80;87.20;;;;;;5117709;27;20095;-78
2023/12/29 07:25:37;;;;;;;27.52;6.78;;;9.80;87.40;;;;;;5134560;27;20043;-77
2023/12/29 07:28:03;;;;;;;26.48;5.60;;;9.80;87.60;;;;;;5116960;27;20558;-77
2023/12/29 07:30:29;;;;;;;29.73;6.60;;;9.70;87.60;;;;;;5117201;27;20091;-78
2023/12/29 07:32:55;;;;;;;36.22;6.55;;;9.70;87.50;;;;;;5117142;27;20038;-79
2023/12/29 07:35:20;;;;;;;31.50;7.03;;;9.80;87.40;;;;;;5116987;27;20105;-77
2023/12/29 07:37:46;;;;;;;27.88;6.15;;;9.70;87.50;;;;;;5099607;27;20046;-78
2023/12/29 07:40:13;;;;;;;29.75;5.60;;;9.70;87.80;;;;;;5133657;27;20114;-77
2023/12/29 07:42:44;;;;;;;33.67;6.97;;;9.70;87.90;;;;;;5133575;27;20043;-78
2023/12/29 07:45:10;;;;;;;25.27;4.90;;;9.60;87.80;;;;;;5131361;27;20131;-78
2023/12/29 07:47:36;;;;;;;29.52;7.05;;;9.60;88.10;;;;;;5133882;27;20067;-78
2023/12/29 07:50:02;;;;;;;28.10;6.65;;;9.50;87.90;;;;;;5133391;27;20035;-77
2023/12/29 07:52:29;;;;;;;30.20;6.03;;;9.50;88.00;;;;;;5133873;27;20035;-77
2023/12/29 07:54:55;;;;;;;24.85;6.93;;;9.50;87.90;;;;;;5133818;27;20158;-77
2023/12/29 07:57:21;;;;;;;20.75;4.35;;;9.50;88.00;;;;;;5133878;27;20043;-79
2023/12/29 07:59:47;;;;;;;21.45;5.13;;;9.50;87.50;;;;;;5133734;27;20134;-78
2023/12/29 08:02:12;;;;;;;22.98;4.97;;;9.50;87.10;;;;;;5133831;27;20043;-77
2023/12/29 08:04:38;;;;;;;27.58;5.13;;;9.50;87.10;;;;;;5133751;27;20043;-79
2023/12/29 08:07:04;;;;;;;23.98;4.68;;;9.50;86.90;;;;;;5133421;27;20127;-78
2023/12/29 08:09:30;;;;;;;20.33;5.50;;;9.50;86.60;;;;;;5133749;27;20078;-78
2023/12/29 08:11:56;;;;;;;27.67;5.75;;;9.60;86.40;;;;;;5133439;27;20118;-78
2023/12/29 08:14:22;;;;;;;21.52;5.30;;;9.50;86.70;;;;;;5116480;27;20040;-79
2023/12/29 08:16:47;;;;;;;27.70;5.25;;;9.50;86.90;;;;;;5116567;27;20459;-77
2023/12/29 08:19:15;;;;;;;29.20;5.97;;;9.60;86.80;;;;;;5133428;27;20087;-79
2023/12/29 08:21:40;;;;;;;25.45;7.20;;;9.50;87.10;;;;;;5133501;27;20103;-77
2023/12/29 08:24:06;;;;;;;21.98;4.90;;;9.50;87.20;;;;;;5098981;27;20479;-78
2023/12/29 08:26:32;;;;;;;26.92;5.07;;;9.50;87.50;;;;;;5099189;27;20395;-78
2023/12/29 08:28:58;;;;;;;27.20;7.03;;;9.50;87.20;;;;;;5132991;27;20047;-78
2023/12/29 08:31:26;;;;;;;27.17;5.22;;;9.50;87.20;;;;;;5133452;27;20502;-78
2023/12/29 08:33:52;;;;;;;21.77;5.78;;;9.50;87.40;;;;;;5116520;27;20035;-79
2023/12/29 08:36:21;;;;;;;24.65;5.47;;;9.50;87.30;;;;;;5116200;27;20521;-78
2023/12/29 08:38:46;;;;;;;24.20;6.47;;;9.50;87.20;;;;;;5133740;27;20126;-79
2023/12/29 08:41:15;;;;;;;20.83;5.22;;;9.50;87.10;;;;;;5116150;28;20080;-79
2023/12/29 08:43:41;;;;;;;22.67;4.97;;;9.40;87.10;;;;;;5133292;28;20039;-79
2023/12/29 08:46:07;;;;;;;24.02;4.90;;;9.50;86.90;;;;;;5082107;28;20046;-78
2023/12/29 08:48:34;;;;;;;20.45;4.20;;;9.40;86.90;;;;;;5133075;28;20039;-77
2023/12/29 08:50:59;;;;;;;29.25;4.95;;;9.50;86.60;;;;;;5099503;28;20043;-77
2023/12/29 08:53:25;;;;;;;23.48;4.40;;;9.50;86.30;;;;;;5116211;28;20042;-79
2023/12/29 08:55:51;;;;;;;18.95;4.35;;;9.40;86.30;;;;;;5135179;27;20035;-78
2023/12/29 08:58:17;;;;;;;19.88;4.18;;;9.40;86.50;;;;;;5137554;27;20042;-78
2023/12/29 09:00:42;;;;;;;18.83;4.88;;;9.50;86.60;;;;;;5120292;27;20046;-78
2023/12/29 09:03:08;;;;;;;24.70;5.05;;;9.50;86.70;;;;;;5137347;27;20451;-77
2023/12/29 09:05:34;;;;;;;27.67;4.88;;;9.60;86.90;;;;;;5120098;27;20479;-78
2023/12/29 09:07:59;;;;;;;27.80;6.07;;;9.50;87.30;;;;;;5137085;27;20100;-77
2023/12/29 09:10:25;;;;;;;21.48;4.57;;;9.50;87.70;;;;;;5137101;27;20066;-77
2023/12/29 09:12:51;;;;;;;21.17;4.90;;;9.50;87.90;;;;;;5137391;27;20077;-79
2023/12/29 09:15:16;;;;;;;23.85;5.95;;;9.50;88.00;;;;;;5120479;27;20035;-79
2023/12/29 09:17:42;;;;;;;33.17;6.68;;;9.60;88.40;;;;;;5119882;27;20403;-80
2023/12/29 09:20:09;;;;;;;26.67;6.22;;;9.60;88.50;;;;;;5137186;27;20246;-77
2023/12/29 09:22:35;;;;;;;20.92;5.15;;;9.60;88.60;;;;;;5102720;27;20046;-77
2023/12/29 09:25:01;;;;;;;32.72;6.40;;;9.60;88.40;;;;;;5136773;27;20083;-77
2023/12/29 09:27:26;;;;;;;34.55;6.57;;;9.60;88.30;;;;;;5102487;27;20047;-77
2023/12/29 09:29:52;;;;;;;26.60;5.68;;;9.70;88.20;;;;;;5119663;27;20043;-78
2023/12/29 09:32:18;;;;;;;24.48;5.43;;;9.70;88.10;;;;;;5119570;27;20562;-77
2023/12/29 09:34:43;;;;;;;24.80;5.30;;;9.70;87.90;;;;;;5137007;27;20034;-79
2023/12/29 09:37:09;;;;;;;20.00;4.85;;;9.70;87.50;;;;;;5119772;27;20035;-78
2023/12/29 09:39:35;;;;;;;29.95;5.63;;;9.80;87.00;;;;;;5119857;27;20042;-78
2023/12/29 09:42:03;;;;;;;30.83;5.22;;;9.80;86.90;;;;;;5136680;27;20481;-79
2023/12/29 09:44:31;;;;;;;23.83;4.60;;;9.80;86.90;;;;;;5119864;27;20046;-78
2023/12/29 09:47:01;;;;;;;24.05;4.88;;;9.80;86.90;;;;;;5136244;27;20078;-77
2023/12/29 09:49:36;;;;;;;27.15;5.13;;;9.90;87.00;;;;;;5136259;27;20035;-80
2023/12/29 09:52:03;;;;;;;24.92;5.45;;;9.90;87.00;;;;;;5134354;27;20068;-79
2023/12/29 09:54:31;;;;;;;17.63;5.05;;;9.90;87.20;;;;;;5134821;27;20403;-79
2023/12/29 09:56:57;;;;;;;17.27;4.55;;;9.90;86.90;;;;;;5118603;27;20522;-78
2023/12/29 09:59:25;;;;;;;17.02;3.97;;;9.90;86.10;;;;;;5117962;27;20031;-78
2023/12/29 10:01:52;;;;;;;27.33;5.88;;;9.90;86.10;;;;;;5134883;27;20031;-78
2023/12/29 10:04:18;;;;;;;14.57;4.13;;;10.00;85.20;;;;;;5135798;27;20499;-79
2023/12/29 10:06:47;;;;;;;17.52;4.78;;;9.90;85.00;;;;;;5134213;27;20039;-79
2023/12/29 10:09:15;;;;;;;20.08;3.78;;;10.00;84.60;;;;;;5135394;27;20039;-79
2023/12/29 10:11:47;;;;;;;21.92;4.05;;;9.90;84.40;;;;;;5118419;27;20096;-77
2023/12/29 10:14:24;;;;;;;10.35;2.92;;;9.90;83.70;;;;;;5135691;27;20376;-78
2023/12/29 10:17:03;;;;;;;8.65;2.13;;;9.90;83.30;;;;;;5134514;27;20043;-78
2023/12/29 10:19:46;;;;;;;18.95;3.60;;;9.90;83.20;;;;;;5135148;27;20035;-79
2023/12/29 10:22:21;;;;;;;15.38;4.22;;;9.90;82.00;;;;;;5118453;27;20139;-79
2023/12/29 10:24:47;;;;;;;;;;;9.90;81.80;;;;;;5135694;27;20035;-78
2023/12/29 10:27:13;;;;;;;15.90;2.80;;;9.80;81.80;;;;;;5117750;27;20367;-78
2023/12/29 10:29:39;;;;;;;15.77;3.05;;;9.80;80.90;;;;;;5116916;27;20560;-77
2023/12/29 10:32:05;;;;;;;15.07;3.65;;;9.70;80.70;;;;;;5135351;27;20039;-78
2023/12/29 10:34:33;;;;;;;10.73;2.70;;;9.70;80.30;;;;;;5135019;27;20497;-79
2023/12/29 10:37:02;;;;;;;13.13;3.17;;;9.70;80.00;;;;;;5118206;27;20118;-78
2023/12/29 10:39:28;;;;;;;11.57;2.25;;;9.60;78.30;;;;;;5117883;27;20049;-76
2023/12/29 10:42:05;;;;;;;20.63;3.60;;;9.60;76.90;;;;;;5117774;27;20039;-79
2023/12/29 10:44:30;;;;;;;18.10;3.67;;;9.50;77.10;;;;;;5117982;27;20037;-77
2023/12/29 10:46:56;;;;;;;13.02;3.70;;;9.50;76.60;;;;;;5117824;27;20034;-79
2023/12/29 10:49:22;;;;;;;14.15;3.05;;;9.50;77.10;;;;;;5134692;27;20063;-78
2023/12/29 10:51:48;;;;;;;11.45;2.13;;;9.40;77.30;;;;;;5134639;27;20435;-77
2023/12/29 10:54:23;;;;;;;12.60;2.72;;;9.40;77.50;;;;;;5134589;27;20031;-77
2023/12/29 10:57:04;;;;;;;13.55;3.13;;;9.40;77.80;;;;;;5134744;27;20555;-77
2023/12/29 10:59:30;;;;;;;19.70;3.38;;;9.50;77.70;;;;;;5134461;27;20076;-77
2023/12/29 11:01:56;;;;;;;13.73;3.20;;;9.60;78.40;;;;;;5117372;27;20039;-79
2023/12/29 11:04:22;;;;;;;17.10;3.53;;;9.60;79.00;;;;;;5117327;27;20122;-79
2023/12/29 11:06:51;;;;;;;16.27;3.72;;;9.60;79.40;;;;;;5134576;27;20039;-80
2023/12/29 11:09:36;;;;;;;20.27;4.70;;;9.70;80.20;;;;;;5134088;27;20479;-79
2023/12/29 11:12:05;;;;;;;19.33;4.18;;;9.70;80.80;;;;;;5134504;27;20350;-77
2023/12/29 11:14:32;;;;;;;19.15;4.63;;;9.80;80.90;;;;;;5134109;27;20039;-79
2023/12/29 11:17:00;;;;;;;21.77;4.25;;;9.80;79.50;;;;;;5117135;27;20173;-78
2023/12/29 11:19:26;;;;;;;13.73;3.92;;;9.90;77.90;;;;;;5134051;27;20417;-79
2023/12/29 11:21:54;;;;;;;17.45;3.55;;;9.90;78.00;;;;;;5134153;27;20058;-79
2023/12/29 11:24:20;;;;;;;15.38;3.53;;;10.00;77.80;;;;;;5117061;27;20039;-78
2023/12/29 11:26:47;;;;;;;16.27;3.00;;;10.00;77.00;;;;;;5100003;27;20035;-78
2023/12/29 11:29:12;;;;;;;10.73;2.40;;;10.00;77.00;;;;;;5133535;27;20130;-78
2023/12/29 11:31:42;;;;;;;13.18;2.90;;;10.10;77.20;;;;;;5116685;27;20121;-80
2023/12/29 11:34:33;;;;;;;17.10;3.30;;;10.00;77.70;;;;;;5134027;27;20138;-79
2023/12/29 11:37:18;;;;;;;12.40;3.55;;;10.00;77.90;;;;;;5133653;27;20085;-78
2023/12/29 11:39:53;;;;;;;12.27;4.15;;;10.10;78.00;;;;;;5116549;27;20046;-78
2023/12/29 11:42:30;;;;;;;10.45;3.42;;;10.10;77.40;;;;;;5133905;27;20399;-80
2023/12/29 11:44:56;;;;;;;15.95;3.45;;;10.20;76.80;;;;;;5133607;27;20046;-76
2023/12/29 11:47:38;;;;;;;13.88;2.67;;;10.30;76.60;;;;;;5133512;27;20039;-77
2023/12/29 11:50:05;;;;;;;13.77;3.00;;;10.40;75.80;;;;;;5111754;27;20039;-79
2023/12/29 11:52:39;;;;;;;20.02;3.70;;;10.40;75.60;;;;;;5116534;27;20415;-77
2023/12/29 11:55:08;;;;;;;;;;;10.40;74.90;;;;;;5133801;27;20070;-78
2023/12/29 11:57:33;;;;;;;14.40;2.65;;;10.40;75.70;;;;;;5132506;27;19967;-78
2023/12/29 11:59:59;;;;;;;14.95;3.42;;;10.40;75.40;;;;;;5116264;27;20428;-77
2023/12/29 12:02:29;;;;;;;11.60;3.03;;;10.40;74.70;;;;;;5116477;27;20046;-79
2023/12/29 12:04:55;;;;;;;13.05;2.95;;;10.30;74.10;;;;;;5116119;27;20078;-78
2023/12/29 12:07:24;;;;;;;14.25;3.10;;;10.10;75.00;;;;;;5116108;27;20075;-79
2023/12/29 12:09:50;;;;;;;11.00;2.17;;;10.00;75.00;;;;;;5116145;27;20042;-78
2023/12/29 12:12:41;;;;;;;11.23;3.05;;;9.90;74.80;;;;;;5133135;27;20042;-78
2023/12/29 12:15:32;;;;;;;17.67;3.38;;;9.70;75.40;;;;;;5116224;27;20039;-79
2023/12/29 12:18:09;;;;;;;13.82;4.57;;;9.60;76.10;;;;;;5133362;27;20391;-77
2023/12/29 12:20:35;;;;;;;13.73;3.05;;;9.70;76.60;;;;;;5115889;27;20045;-78
2023/12/29 12:23:05;;;;;;;9.43;3.22;;;9.70;76.60;;;;;;5132968;27;20050;-78
2023/12/29 12:25:36;;;;;;;15.07;3.58;;;9.60;76.70;;;;;;5116074;27;20039;-77
2023/12/29 12:28:06;;;;;;;16.20;2.95;;;9.40;75.70;;;;;;5116505;27;20542;-76
2023/12/29 12:30:36;;;;;;;15.20;3.30;;;9.30;75.80;;;;;;5115270;27;20043;-78
2023/12/29 12:33:03;;;;;;;14.35;3.72;;;9.30;76.40;;;;;;5133001;27;20434;-75
2023/12/29 12:35:30;;;;;;;9.35;1.92;;;9.20;76.80;;;;;;5132852;27;20074;-77
2023/12/29 12:38:23;;;;;;;14.38;4.53;;;9.20;77.60;;;;;;5132765;27;20047;-78
2023/12/29 12:40:49;;;;;;;11.80;3.17;;;9.10;77.40;;;;;;5100998;28;20074;-77
2023/12/29 12:43:16;;;;;;;24.05;4.43;;;9.20;77.40;;;;;;5115762;27;20084;-78